createdAt,value
2022-09-13T00:01:28.297Z,100.00
2022-09-13T00:03:55.500Z,100.00
2022-09-13T00:06:22.698Z,100.00
2022-09-13T00:08:50.128Z,100.00
2022-09-13T00:11:20.559Z,100.00
2022-09-13T00:13:49.490Z,100.00
2022-09-13T00:16:19.137Z,100.00
2022-09-13T00:18:46.167Z,100.00
2022-09-13T00:21:15.723Z,100.00
2022-09-13T00:23:45.586Z,100.00
2022-09-13T00:26:15.269Z,100.00
2022-09-13T00:28:43.076Z,100.00
2022-09-13T00:31:10.182Z,100.00
2022-09-13T00:33:37.795Z,100.00
2022-09-13T00:36:10.168Z,100.00
2022-09-13T00:38:41.582Z,100.00
2022-09-13T00:41:12.172Z,100.00
2022-09-13T00:43:55.117Z,100.00
2022-09-13T00:46:35.470Z,100.00
2022-09-13T00:49:17.674Z,100.00
2022-09-13T00:51:53.001Z,100.00
2022-09-13T00:54:23.695Z,100.00
2022-09-13T00:56:54.927Z,100.00
2022-09-13T00:59:33.445Z,100.00
2022-09-13T01:02:02.167Z,100.00
2022-09-13T01:04:32.668Z,100.00
2022-09-13T01:07:04.573Z,100.00
2022-09-13T01:09:33.411Z,100.00
2022-09-13T01:12:08.301Z,100.00
2022-09-13T01:14:37.168Z,100.00
2022-09-13T01:17:04.834Z,100.00
2022-09-13T01:19:32.019Z,100.00
2022-09-13T01:22:25.181Z,100.00
2022-09-13T01:25:34.395Z,100.00
2022-09-13T01:28:28.133Z,100.00
2022-09-13T01:31:13.524Z,100.00
2022-09-13T01:34:21.850Z,100.00
2022-09-13T01:37:03.930Z,100.00
2022-09-13T01:39:59.029Z,100.00
2022-09-13T01:42:41.684Z,100.00
2022-09-13T01:45:32.872Z,100.00
2022-09-13T01:48:07.371Z,100.00
2022-09-13T01:50:37.191Z,100.00
2022-09-13T01:53:16.255Z,100.00
2022-09-13T01:55:59.284Z,100.00
2022-09-13T01:58:32.181Z,100.00
2022-09-13T02:01:08.475Z,100.00
2022-09-13T02:03:43.377Z,100.00
2022-09-13T02:06:24.599Z,100.00
2022-09-13T02:09:02.759Z,100.00
2022-09-13T02:11:30.931Z,100.00
2022-09-13T02:14:20.759Z,100.00
2022-09-13T02:17:02.556Z,100.00
2022-09-13T02:19:38.493Z,100.00
2022-09-13T02:22:08.090Z,100.00
2022-09-13T02:24:48.435Z,100.00
2022-09-13T02:27:20.670Z,100.00
2022-09-13T02:29:51.014Z,100.00
2022-09-13T02:32:38.560Z,100.00
2022-09-13T02:35:19.287Z,100.00
2022-09-13T02:37:55.853Z,100.00
2022-09-13T02:43:35.939Z,100.00
2022-09-13T02:46:32.323Z,100.00
2022-09-13T02:49:14.266Z,100.00
2022-09-13T02:51:52.409Z,100.00
2022-09-13T02:54:44.199Z,100.00
2022-09-13T02:57:20.749Z,100.00
2022-09-13T02:59:49.623Z,100.00
2022-09-13T03:02:20.057Z,100.00
2022-09-13T03:04:46.943Z,100.00
2022-09-13T03:07:15.413Z,100.00
2022-09-13T03:10:07.352Z,100.00
2022-09-13T03:13:02.070Z,100.00
2022-09-13T03:15:56.531Z,100.00
2022-09-13T03:19:15.696Z,100.00
2022-09-13T03:21:55.383Z,100.00
2022-09-13T03:24:52.966Z,100.00
2022-09-13T03:27:29.023Z,100.00
2022-09-13T03:30:08.413Z,100.00
2022-09-13T03:32:48.057Z,100.00
2022-09-13T03:35:33.459Z,100.00
2022-09-13T03:38:06.939Z,100.00
2022-09-13T03:41:02.961Z,100.00
2022-09-13T03:43:41.689Z,100.00
2022-09-13T03:46:23.223Z,100.00
2022-09-13T03:48:51.608Z,100.00
2022-09-13T03:51:18.862Z,100.00
2022-09-13T03:53:56.748Z,100.00
2022-09-13T03:56:24.254Z,100.00
2022-09-13T03:58:51.257Z,100.00
2022-09-13T04:01:21.967Z,100.00
2022-09-13T04:03:53.330Z,100.00
2022-09-13T04:06:22.744Z,100.00
2022-09-13T04:08:49.804Z,100.00
2022-09-13T04:11:17.035Z,100.00
2022-09-13T04:13:43.909Z,100.00
2022-09-13T04:16:10.739Z,100.00
2022-09-13T04:18:37.815Z,100.00
2022-09-13T04:21:04.904Z,100.00
2022-09-13T04:23:31.718Z,100.00
2022-09-13T04:26:05.307Z,100.00
2022-09-13T04:28:32.139Z,100.00
2022-09-13T04:30:59.084Z,100.00
2022-09-13T04:33:25.997Z,100.00
2022-09-13T04:35:59.767Z,100.00
2022-09-13T04:38:27.307Z,100.00
2022-09-13T04:40:55.787Z,100.00
2022-09-13T04:43:23.747Z,100.00
2022-09-13T04:45:51.109Z,100.00
2022-09-13T04:48:18.003Z,100.00
2022-09-13T04:50:45.016Z,100.00
2022-09-13T04:53:12.272Z,100.00
2022-09-13T04:55:39.200Z,100.00
2022-09-13T04:58:06.179Z,100.00
2022-09-13T05:00:34.076Z,100.00
2022-09-13T05:03:01.275Z,100.00
2022-09-13T05:05:28.976Z,100.00
2022-09-13T05:07:56.062Z,100.00
2022-09-13T05:10:22.855Z,100.00
2022-09-13T05:12:49.626Z,100.00
2022-09-13T05:15:16.817Z,100.00
2022-09-13T05:17:43.654Z,100.00
2022-09-13T05:20:10.956Z,100.00
2022-09-13T05:22:38.175Z,100.00
2022-09-13T05:25:05.460Z,100.00
2022-09-13T05:27:32.204Z,98.55
2022-09-13T05:29:59.193Z,98.12
2022-09-13T05:32:26.126Z,93.70
2022-09-13T05:34:52.954Z,91.53
2022-09-13T05:37:20.029Z,87.71
2022-09-13T05:40:10.123Z,85.18
2022-09-13T05:42:34.189Z,83.74
2022-09-13T05:45:00.945Z,81.24
2022-09-13T05:47:27.723Z,78.73
2022-09-13T05:50:09.793Z,76.44
2022-09-13T05:52:37.459Z,74.23
2022-09-13T05:55:04.712Z,74.01
2022-09-13T05:57:31.467Z,70.70
2022-09-13T05:59:58.248Z,66.82
2022-09-13T06:02:25.253Z,65.60
2022-09-13T06:04:52.061Z,62.07
2022-09-13T06:07:18.945Z,62.05
2022-09-13T06:09:45.904Z,58.29
2022-09-13T06:12:12.675Z,54.41
2022-09-13T06:14:39.475Z,53.75
2022-09-13T06:17:06.438Z,48.31
2022-09-13T06:19:33.198Z,48.04
2022-09-13T06:22:00.020Z,47.61
2022-09-13T06:24:27.079Z,47.45
2022-09-13T06:26:54.393Z,46.13
2022-09-13T06:29:21.251Z,49.51
2022-09-13T06:31:48.303Z,52.10
2022-09-13T06:34:16.280Z,58.00
2022-09-13T06:36:43.490Z,57.61
2022-09-13T06:39:10.785Z,55.70
2022-09-13T06:41:37.952Z,55.88
2022-09-13T06:44:05.460Z,55.84
2022-09-13T06:46:34.665Z,55.86
2022-09-13T06:49:05.590Z,55.96
2022-09-13T06:51:34.032Z,58.46
2022-09-13T06:54:01.455Z,62.09
2022-09-13T06:56:33.171Z,64.69
2022-09-13T06:59:02.906Z,62.69
2022-09-13T07:01:32.489Z,57.28
2022-09-13T07:04:10.918Z,48.62
2022-09-13T07:06:40.466Z,48.51
2022-09-13T07:09:10.798Z,45.45
2022-09-13T07:11:40.604Z,43.46
2022-09-13T07:14:09.137Z,45.90
2022-09-13T07:16:38.560Z,47.64
2022-09-13T07:19:11.186Z,48.64
2022-09-13T07:21:38.388Z,48.59
2022-09-13T07:24:05.601Z,48.22
2022-09-13T07:26:32.347Z,47.48
2022-09-13T07:29:01.842Z,47.89
2022-09-13T07:31:40.168Z,49.74
2022-09-13T07:34:11.969Z,47.04
2022-09-13T07:36:38.910Z,44.52
2022-09-13T07:39:06.465Z,45.35
2022-09-13T07:41:35.278Z,46.01
2022-09-13T07:44:03.242Z,48.20
2022-09-13T07:46:32.509Z,50.81
2022-09-13T07:49:01.326Z,50.07
2022-09-13T07:51:33.312Z,46.45
2022-09-13T07:54:02.599Z,45.31
2022-09-13T07:56:32.475Z,45.29
2022-09-13T07:59:01.538Z,46.35
2022-09-13T08:01:38.461Z,49.88
2022-09-13T08:04:10.646Z,46.20
2022-09-13T08:06:43.402Z,48.08
2022-09-13T08:09:10.897Z,51.09
2022-09-13T08:11:39.292Z,52.16
2022-09-13T08:14:08.851Z,52.87
2022-09-13T08:16:35.942Z,50.54
2022-09-13T08:19:04.680Z,48.96
2022-09-13T08:21:37.593Z,48.98
2022-09-13T08:24:06.386Z,42.86
2022-09-13T08:26:34.664Z,43.12
2022-09-13T08:29:04.577Z,40.20
2022-09-13T08:31:32.114Z,40.83
2022-09-13T08:33:59.569Z,41.74
2022-09-13T08:36:28.792Z,41.57
2022-09-13T08:38:59.311Z,39.61
2022-09-13T08:41:48.133Z,40.32
2022-09-13T08:44:31.169Z,40.20
2022-09-13T08:47:03.522Z,40.96
2022-09-13T08:49:34.649Z,41.75
2022-09-13T08:52:29.894Z,41.25
2022-09-13T08:54:58.659Z,42.18
2022-09-13T08:57:35.759Z,42.15
2022-09-13T09:00:23.199Z,43.33
2022-09-13T09:03:08.770Z,44.11
2022-09-13T09:06:02.097Z,44.67
2022-09-13T09:08:52.136Z,48.25
2022-09-13T09:11:38.008Z,43.85
2022-09-13T09:14:04.754Z,41.33
2022-09-13T09:17:13.571Z,41.76
2022-09-13T09:19:55.518Z,43.00
2022-09-13T09:22:25.572Z,41.81
2022-09-13T09:24:55.615Z,43.59
2022-09-13T09:27:23.307Z,44.96
2022-09-13T09:29:53.555Z,42.01
2022-09-13T09:32:42.163Z,39.68
2022-09-13T09:35:36.933Z,39.30
2022-09-13T09:38:22.485Z,38.65
2022-09-13T09:40:49.993Z,40.07
2022-09-13T09:43:29.998Z,43.93
2022-09-13T09:45:58.349Z,42.24
2022-09-13T09:48:30.538Z,37.59
2022-09-13T09:50:58.737Z,35.53
2022-09-13T09:53:37.008Z,32.22
2022-09-13T09:56:23.319Z,32.72
2022-09-13T09:58:52.306Z,30.26
2022-09-13T10:01:24.557Z,29.23
2022-09-13T10:04:16.560Z,28.05
2022-09-13T10:06:46.239Z,27.21
2022-09-13T10:09:13.161Z,28.87
2022-09-13T10:11:53.081Z,26.06
2022-09-13T10:14:27.994Z,26.49
2022-09-13T10:17:23.577Z,26.13
2022-09-13T10:20:04.004Z,24.37
2022-09-13T10:22:33.901Z,26.47
2022-09-13T10:25:23.782Z,27.48
2022-09-13T10:27:54.287Z,26.99
2022-09-13T10:30:37.526Z,26.67
2022-09-13T10:33:06.131Z,25.50
2022-09-13T10:35:33.564Z,25.49
2022-09-13T10:38:00.855Z,25.29
2022-09-13T10:40:34.173Z,25.21
2022-09-13T10:43:04.940Z,25.56
2022-09-13T10:45:32.341Z,23.19
2022-09-13T10:48:10.617Z,23.62
2022-09-13T10:50:37.635Z,24.93
2022-09-13T10:53:24.990Z,27.30
2022-09-13T10:55:55.440Z,26.32
2022-09-13T10:58:22.532Z,25.71
2022-09-13T11:00:55.282Z,25.01
2022-09-13T11:03:40.309Z,23.81
2022-09-13T11:06:15.877Z,23.11
2022-09-13T11:09:03.195Z,25.61
2022-09-13T11:11:47.323Z,22.93
2022-09-13T11:14:17.827Z,23.92
2022-09-13T11:17:07.466Z,25.42
2022-09-13T11:19:56.982Z,28.04
2022-09-13T11:22:38.939Z,26.30
2022-09-13T11:25:24.579Z,27.17
2022-09-13T11:28:08.894Z,25.47
2022-09-13T11:31:01.868Z,27.32
2022-09-13T11:33:43.578Z,27.29
2022-09-13T11:36:16.978Z,26.72
2022-09-13T11:39:08.423Z,24.97
2022-09-13T11:41:59.532Z,27.70
2022-09-13T11:44:36.196Z,28.88
2022-09-13T11:47:03.125Z,32.04
2022-09-13T11:49:58.963Z,33.08
2022-09-13T11:52:52.348Z,32.82
2022-09-13T11:55:33.709Z,32.64
2022-09-13T11:58:14.909Z,31.52
2022-09-13T12:00:46.908Z,32.10
2022-09-13T12:03:32.249Z,31.55
2022-09-13T12:06:13.628Z,32.05
2022-09-13T12:08:54.637Z,33.00
2022-09-13T12:11:48.476Z,34.07
2022-09-13T12:14:21.663Z,32.65
2022-09-13T12:16:52.204Z,31.60
2022-09-13T12:19:27.433Z,34.29
2022-09-13T12:21:58.740Z,35.00
2022-09-13T12:24:35.976Z,34.05
2022-09-13T12:27:22.090Z,33.25
2022-09-13T12:29:53.747Z,34.26
2022-09-13T12:32:21.509Z,34.90
2022-09-13T12:35:06.554Z,35.69
2022-09-13T12:37:51.710Z,36.41
2022-09-13T12:40:31.271Z,36.96
2022-09-13T12:43:01.066Z,36.41
2022-09-13T12:45:49.725Z,36.21
2022-09-13T12:48:35.319Z,35.91
2022-09-13T12:51:32.724Z,35.96
2022-09-13T12:54:17.949Z,35.68
2022-09-13T12:57:23.589Z,36.60
2022-09-13T13:00:18.359Z,36.96
2022-09-13T13:03:10.318Z,38.51
2022-09-13T13:05:43.459Z,38.53
2022-09-13T13:08:19.539Z,40.12
2022-09-13T13:11:07.037Z,40.20
2022-09-13T13:13:44.764Z,40.00
2022-09-13T13:16:34.843Z,40.57
2022-09-13T13:19:06.380Z,41.16
2022-09-13T13:21:40.770Z,40.56
2022-09-13T13:24:16.387Z,40.13
2022-09-13T13:26:45.761Z,40.98
2022-09-13T13:29:19.923Z,40.65
2022-09-13T13:32:07.650Z,42.00
2022-09-13T13:34:50.754Z,41.70
2022-09-13T13:37:20.502Z,42.41
2022-09-13T13:39:49.018Z,42.22
2022-09-13T13:42:27.867Z,42.79
2022-09-13T13:44:54.775Z,42.06
2022-09-13T13:47:32.958Z,43.18
2022-09-13T13:50:02.810Z,42.36
2022-09-13T13:52:36.734Z,42.62
2022-09-13T13:55:49.336Z,43.15
2022-09-13T13:58:19.326Z,44.34
2022-09-13T14:00:50.234Z,44.89
2022-09-13T14:03:28.326Z,45.48
2022-09-13T14:06:06.128Z,46.07
2022-09-13T14:08:54.106Z,46.19
2022-09-13T14:11:42.421Z,46.67
2022-09-13T14:14:38.954Z,47.96
2022-09-13T14:17:33.545Z,47.36
2022-09-13T14:20:26.834Z,47.07
2022-09-13T14:23:13.270Z,47.75
2022-09-13T14:25:40.229Z,46.87
2022-09-13T14:28:07.847Z,48.00
2022-09-13T14:30:39.354Z,45.74
2022-09-13T14:33:06.362Z,46.30
2022-09-13T14:35:41.634Z,47.22
2022-09-13T14:42:13.807Z,46.47
2022-09-13T14:44:46.672Z,46.99
2022-09-13T14:47:25.101Z,47.69
2022-09-13T14:50:13.101Z,47.92
2022-09-13T14:52:49.659Z,47.73
2022-09-13T14:55:21.473Z,47.68
2022-09-13T14:57:52.673Z,46.79
2022-09-13T15:00:22.669Z,47.61
2022-09-13T15:02:53.281Z,48.68
2022-09-13T15:05:23.802Z,48.44
2022-09-13T15:07:51.094Z,49.07
2022-09-13T15:10:17.832Z,49.75
2022-09-13T15:12:55.784Z,50.17
2022-09-13T15:15:26.204Z,50.56
2022-09-13T15:17:54.741Z,51.15
2022-09-13T15:20:22.703Z,51.19
2022-09-13T15:22:51.535Z,52.53
2022-09-13T15:25:26.063Z,51.92
2022-09-13T15:27:55.080Z,53.23
2022-09-13T15:30:24.854Z,53.25
2022-09-13T15:33:07.200Z,53.25
2022-09-13T15:35:39.874Z,55.03
2022-09-13T15:38:25.387Z,55.59
2022-09-13T15:41:10.691Z,56.22
2022-09-13T15:43:38.046Z,57.32
2022-09-13T15:46:06.425Z,57.98
2022-09-13T15:48:35.510Z,58.81
2022-09-13T15:51:13.666Z,59.26
2022-09-13T15:53:42.688Z,60.30
2022-09-13T15:56:15.598Z,61.78
2022-09-13T15:58:42.814Z,62.87
2022-09-13T16:01:12.716Z,64.42
2022-09-13T16:03:40.094Z,65.11
2022-09-13T16:06:09.378Z,65.06
2022-09-13T16:08:37.711Z,66.19
2022-09-13T16:11:05.866Z,67.22
2022-09-13T16:13:33.098Z,68.51
2022-09-13T16:16:00.302Z,69.96
2022-09-13T16:18:27.380Z,70.23
2022-09-13T16:20:54.515Z,70.64
2022-09-13T16:23:21.298Z,72.53
2022-09-13T16:25:57.427Z,73.12
2022-09-13T16:28:25.017Z,74.22
2022-09-13T16:30:52.575Z,75.78
2022-09-13T16:33:19.903Z,78.13
2022-09-13T16:35:47.652Z,79.70
2022-09-13T16:38:14.715Z,81.32
2022-09-13T16:40:43.300Z,82.28
2022-09-13T16:43:10.763Z,83.75
2022-09-13T16:45:42.112Z,86.01
2022-09-13T16:48:09.131Z,87.18
2022-09-13T16:50:40.238Z,87.66
2022-09-13T16:53:08.057Z,88.34
2022-09-13T16:55:35.604Z,88.56
2022-09-13T16:58:02.660Z,90.00
2022-09-13T17:00:30.230Z,91.59
2022-09-13T17:02:57.777Z,93.27
2022-09-13T17:05:25.866Z,94.59
2022-09-13T17:07:53.269Z,95.19
2022-09-13T17:10:21.796Z,97.02
2022-09-13T17:12:49.286Z,97.69
2022-09-13T17:15:16.323Z,98.51
2022-09-13T17:17:43.143Z,98.76
2022-09-13T17:20:12.259Z,99.26
2022-09-13T17:22:39.649Z,99.91
2022-09-13T17:25:10.279Z,100.00
2022-09-13T17:27:37.435Z,100.00
2022-09-13T17:30:05.305Z,100.00
2022-09-13T17:32:32.398Z,100.00
2022-09-13T17:34:59.489Z,100.00
2022-09-13T17:37:26.376Z,100.00
2022-09-13T17:39:53.328Z,100.00
2022-09-13T17:42:23.316Z,100.00
2022-09-13T17:44:50.965Z,100.00
2022-09-13T17:47:17.814Z,100.00
2022-09-13T17:49:47.211Z,100.00
2022-09-13T17:52:14.029Z,100.00
2022-09-13T17:54:40.887Z,100.00
2022-09-13T17:57:08.101Z,100.00
2022-09-13T17:59:35.149Z,100.00
2022-09-13T18:02:02.187Z,100.00
2022-09-13T18:04:29.403Z,100.00
2022-09-13T18:06:56.288Z,100.00
2022-09-13T18:09:23.440Z,100.00
2022-09-13T18:11:51.325Z,100.00
2022-09-13T18:14:19.232Z,100.00
2022-09-13T18:16:47.153Z,100.00
2022-09-13T18:19:14.199Z,100.00
2022-09-13T18:21:41.237Z,100.00
2022-09-13T18:24:08.416Z,100.00
2022-09-13T18:26:36.025Z,100.00
2022-09-13T18:29:07.518Z,100.00
2022-09-13T18:31:36.030Z,100.00
2022-09-13T18:34:05.657Z,100.00
2022-09-13T18:36:34.994Z,100.00
2022-09-13T18:39:04.845Z,100.00
2022-09-13T18:41:37.828Z,100.00
2022-09-13T18:44:07.228Z,100.00
2022-09-13T18:46:35.160Z,100.00
2022-09-13T18:49:03.305Z,100.00
2022-09-13T18:51:33.314Z,100.00
2022-09-13T18:54:01.509Z,100.00
2022-09-13T18:56:29.206Z,100.00
2022-09-13T18:58:56.862Z,100.00
2022-09-13T19:01:26.787Z,100.00
2022-09-13T19:03:57.369Z,100.00
2022-09-13T19:06:36.266Z,100.00
2022-09-13T19:09:04.538Z,100.00
2022-09-13T19:11:49.981Z,100.00
2022-09-13T19:14:19.417Z,100.00
2022-09-13T19:16:46.874Z,99.96
2022-09-13T19:19:14.037Z,98.62
2022-09-13T19:21:41.286Z,97.73
2022-09-13T19:24:16.282Z,96.29
2022-09-13T19:26:44.857Z,96.32
2022-09-13T19:29:15.361Z,95.81
2022-09-13T19:31:44.277Z,95.02
2022-09-13T19:34:12.275Z,94.70
2022-09-13T19:36:40.240Z,93.94
2022-09-13T19:39:07.711Z,93.60
2022-09-13T19:41:37.182Z,93.19
2022-09-13T19:44:04.543Z,93.18
2022-09-13T19:46:34.970Z,92.45
2022-09-13T19:49:02.690Z,91.96
2022-09-13T19:51:32.541Z,90.71
2022-09-13T19:54:00.690Z,90.16
2022-09-13T19:56:30.231Z,89.83
2022-09-13T19:58:58.394Z,90.02
2022-09-13T20:01:28.359Z,89.86
2022-09-13T20:04:00.922Z,89.60
2022-09-13T20:06:30.330Z,89.85
2022-09-13T20:09:02.887Z,89.75
2022-09-13T20:11:31.539Z,89.47
2022-09-13T20:13:59.565Z,89.21
2022-09-13T20:16:30.218Z,88.78
2022-09-13T20:18:58.262Z,89.00
2022-09-13T20:21:27.212Z,88.89
2022-09-13T20:23:56.198Z,89.01
2022-09-13T20:26:25.720Z,88.80
2022-09-13T20:28:56.671Z,89.65
2022-09-13T20:31:25.247Z,88.77
2022-09-13T20:33:56.835Z,89.01
2022-09-13T20:36:24.707Z,89.28
2022-09-13T20:38:53.442Z,89.08
2022-09-13T20:41:21.571Z,89.37
2022-09-13T20:43:49.004Z,89.30
2022-09-13T20:46:17.289Z,88.98
2022-09-13T20:48:44.894Z,89.04
2022-09-13T20:51:25.353Z,88.55
2022-09-13T20:54:00.640Z,88.54
2022-09-13T20:56:29.008Z,88.21
2022-09-13T20:59:00.199Z,87.68
2022-09-13T21:01:28.934Z,87.35
2022-09-13T21:03:56.208Z,87.11
2022-09-13T21:06:25.325Z,86.73
2022-09-13T21:08:52.567Z,86.39
2022-09-13T21:11:25.763Z,85.34
2022-09-13T21:13:56.075Z,85.45
2022-09-13T21:16:25.488Z,85.12
2022-09-13T21:18:53.736Z,84.84
2022-09-13T21:21:26.520Z,84.76
2022-09-13T21:23:54.864Z,84.72
2022-09-13T21:26:23.898Z,84.02
2022-09-13T21:28:51.254Z,84.44
2022-09-13T21:31:21.848Z,83.55
2022-09-13T21:33:54.292Z,83.54
2022-09-13T21:36:21.074Z,83.48
2022-09-13T21:38:47.981Z,83.22
2022-09-13T21:41:16.917Z,83.15
2022-09-13T21:43:44.514Z,82.84
2022-09-13T21:46:16.687Z,82.49
2022-09-13T21:48:46.427Z,82.55
2022-09-13T21:51:22.273Z,82.55
2022-09-13T21:53:57.607Z,82.04
2022-09-13T21:56:27.510Z,81.95
2022-09-13T21:58:59.701Z,81.67
2022-09-13T22:01:31.022Z,81.55
2022-09-13T22:03:59.263Z,81.19
2022-09-13T22:06:31.412Z,81.07
2022-09-13T22:09:02.443Z,80.68
2022-09-13T22:11:32.106Z,81.29
2022-09-13T22:13:59.872Z,81.10
2022-09-13T22:16:29.485Z,81.13
2022-09-13T22:18:58.057Z,81.05
2022-09-13T22:21:33.665Z,80.81
2022-09-13T22:24:01.233Z,80.94
2022-09-13T22:26:31.145Z,80.96
2022-09-13T22:28:58.693Z,80.40
2022-09-13T22:31:28.453Z,80.70
2022-09-13T22:33:56.546Z,80.67
2022-09-13T22:36:23.879Z,80.81
2022-09-13T22:38:54.935Z,80.58
2022-09-13T22:41:28.436Z,80.62
2022-09-13T22:43:57.533Z,80.62
2022-09-13T22:46:33.692Z,80.70
2022-09-13T22:49:01.182Z,80.52
2022-09-13T22:51:28.810Z,80.30
2022-09-13T22:53:56.311Z,80.26
2022-09-13T22:56:29.110Z,79.78
2022-09-13T22:58:56.822Z,79.66
2022-09-13T23:01:24.768Z,79.50
2022-09-13T23:03:52.717Z,79.95
2022-09-13T23:06:21.853Z,79.56
2022-09-13T23:08:50.823Z,79.43
2022-09-13T23:11:21.380Z,79.31
2022-09-13T23:13:49.983Z,79.46
2022-09-13T23:16:20.168Z,79.47
2022-09-13T23:18:48.156Z,79.31
2022-09-13T23:21:18.654Z,79.22
2022-09-13T23:23:45.620Z,79.08
2022-09-13T23:26:17.469Z,78.94
2022-09-13T23:28:46.205Z,78.76
2022-09-13T23:31:14.543Z,78.99
2022-09-13T23:33:44.291Z,78.89
2022-09-13T23:36:12.783Z,79.16
2022-09-13T23:38:41.323Z,78.78
2022-09-13T23:41:08.148Z,78.85
2022-09-13T23:43:34.897Z,78.47
2022-09-13T23:46:01.920Z,78.49
2022-09-13T23:48:28.750Z,78.55
2022-09-13T23:51:03.743Z,78.33
2022-09-13T23:53:31.793Z,78.44
2022-09-13T23:55:58.606Z,78.24
2022-09-13T23:58:26.102Z,77.88
